createdAt,value
2022-12-11T00:01:43.323Z,102399.06
2022-12-11T00:04:10.895Z,102395.25
2022-12-11T00:06:38.786Z,102406.50
2022-12-11T00:09:06.270Z,102405.16
2022-12-11T00:11:33.915Z,102402.16
2022-12-11T00:14:01.498Z,102404.97
2022-12-11T00:16:28.991Z,102399.50
2022-12-11T00:18:56.509Z,102400.53
2022-12-11T00:21:24.507Z,102403.28
2022-12-11T00:23:52.465Z,102398.22
2022-12-11T00:26:20.091Z,102388.09
2022-12-11T00:28:48.177Z,102384.59
2022-12-11T00:31:18.177Z,102390.19
2022-12-11T00:33:46.563Z,102382.00
2022-12-11T00:36:16.491Z,102380.94
2022-12-11T00:38:44.852Z,102384.88
2022-12-11T00:41:12.614Z,102379.69
2022-12-11T00:43:40.550Z,102387.75
2022-12-11T00:46:08.069Z,102375.75
2022-12-11T00:48:35.562Z,102376.25
2022-12-11T00:51:03.655Z,102366.75
2022-12-11T00:53:31.217Z,102364.34
2022-12-11T00:55:59.438Z,102367.66
2022-12-11T00:58:26.850Z,102363.00
2022-12-11T01:00:54.709Z,102374.09
2022-12-11T01:03:22.302Z,102370.41
2022-12-11T01:05:54.949Z,102370.09
2022-12-11T01:08:22.751Z,102354.81
2022-12-11T01:10:50.644Z,102345.88
2022-12-11T01:13:18.185Z,102360.84
2022-12-11T01:15:46.244Z,102355.06
2022-12-11T01:18:15.176Z,102350.78
2022-12-11T01:20:43.682Z,102341.31
2022-12-11T01:26:11.017Z,102325.88
2022-12-11T01:28:38.925Z,102326.31
2022-12-11T01:31:14.288Z,102330.50
2022-12-11T01:33:41.780Z,102333.47
2022-12-11T01:36:11.476Z,102321.94
2022-12-11T01:38:38.919Z,102320.25
2022-12-11T01:41:07.155Z,102330.50
2022-12-11T01:43:34.602Z,102327.81
2022-12-11T01:46:02.261Z,102324.53
2022-12-11T01:48:34.071Z,102329.97
2022-12-11T01:51:06.675Z,102325.28
2022-12-11T01:53:38.912Z,102333.03
2022-12-11T01:56:08.474Z,102334.59
2022-12-11T01:58:43.026Z,102336.28
2022-12-11T02:01:15.480Z,102327.06
2022-12-11T02:03:43.701Z,102320.03
2022-12-11T02:06:50.608Z,102329.59
2022-12-11T02:09:24.617Z,102322.97
2022-12-11T02:12:13.433Z,102319.03
2022-12-11T02:15:05.848Z,102332.50
2022-12-11T02:17:44.626Z,102329.38
2022-12-11T02:20:17.908Z,102335.00
2022-12-11T02:23:15.634Z,102333.94
2022-12-11T02:26:07.405Z,102339.94
2022-12-11T02:28:52.019Z,102333.72
2022-12-11T02:31:33.896Z,102333.22
2022-12-11T02:34:10.458Z,102335.78
2022-12-11T02:36:42.522Z,102341.13
2022-12-11T02:39:13.960Z,102342.72
2022-12-11T02:41:47.025Z,102343.41
2022-12-11T02:44:17.838Z,102343.69
2022-12-11T02:46:45.861Z,102366.88
2022-12-11T02:49:15.408Z,102355.78
2022-12-11T02:51:44.529Z,102357.25
2022-12-11T02:54:23.364Z,102357.44
2022-12-11T02:57:21.177Z,102367.56
2022-12-11T02:59:48.766Z,102365.50
2022-12-11T03:02:17.654Z,102371.06
2022-12-11T03:04:47.925Z,102374.91
2022-12-11T03:07:23.867Z,102371.81
2022-12-11T03:09:51.833Z,102363.94
2022-12-11T03:12:28.077Z,102373.56
2022-12-11T03:14:56.955Z,102370.59
2022-12-11T03:17:30.416Z,102372.38
2022-12-11T03:20:12.373Z,102369.78
2022-12-11T03:22:47.692Z,102375.09
2022-12-11T03:25:20.930Z,102363.31
2022-12-11T03:27:56.505Z,102357.19
2022-12-11T03:30:26.245Z,102352.41
2022-12-11T03:33:05.273Z,102350.53
2022-12-11T03:35:43.079Z,102348.00
2022-12-11T03:38:16.242Z,102351.28
2022-12-11T03:40:49.257Z,102340.69
2022-12-11T03:43:18.074Z,102353.97
2022-12-11T03:45:47.393Z,102356.41
2022-12-11T03:48:16.900Z,102362.25
2022-12-11T03:50:47.145Z,102350.88
2022-12-11T03:53:15.278Z,102347.91
2022-12-11T03:55:43.577Z,102351.72
2022-12-11T03:58:11.147Z,102352.28
2022-12-11T04:00:39.456Z,102346.78
2022-12-11T04:03:16.712Z,102353.81
2022-12-11T04:05:47.352Z,102354.06
2022-12-11T04:08:15.675Z,102341.38
2022-12-11T04:10:43.345Z,102350.44
2022-12-11T04:13:11.635Z,102342.31
2022-12-11T04:15:40.206Z,102344.25
2022-12-11T04:18:26.441Z,102345.94
2022-12-11T04:21:13.792Z,102336.66
2022-12-11T04:23:59.778Z,102341.34
2022-12-11T04:26:27.692Z,102341.59
2022-12-11T04:28:55.024Z,102322.50
2022-12-11T04:31:23.095Z,102337.59
2022-12-11T04:33:50.621Z,102331.06
2022-12-11T04:36:19.277Z,102323.06
2022-12-11T04:38:46.729Z,102322.84
2022-12-11T04:41:15.947Z,102335.56
2022-12-11T04:43:46.515Z,102331.69
2022-12-11T04:46:18.397Z,102332.59
2022-12-11T04:48:46.819Z,102338.03
2022-12-11T04:51:14.589Z,102343.56
2022-12-11T04:53:42.795Z,102342.47
2022-12-11T04:56:13.169Z,102340.53
2022-12-11T04:58:42.163Z,102334.41
2022-12-11T05:01:12.492Z,102341.19
2022-12-11T05:03:40.829Z,102334.09
2022-12-11T05:06:09.005Z,102336.31
2022-12-11T05:08:38.708Z,102334.66
2022-12-11T05:11:08.405Z,102329.06
2022-12-11T05:13:36.420Z,102323.66
2022-12-11T05:16:05.947Z,102320.75
2022-12-11T05:18:33.517Z,102324.28
2022-12-11T05:21:04.103Z,102333.75
2022-12-11T05:23:31.989Z,102332.63
2022-12-11T05:26:02.077Z,102330.28
2022-12-11T05:28:32.386Z,102341.00
2022-12-11T05:31:06.135Z,102335.28
2022-12-11T05:33:34.592Z,102331.34
2022-12-11T05:36:02.100Z,102338.91
2022-12-11T05:38:41.409Z,102337.88
2022-12-11T05:41:17.737Z,102346.28
2022-12-11T05:43:45.717Z,102349.28
2022-12-11T05:46:14.788Z,102342.78
2022-12-11T05:48:43.355Z,102342.66
2022-12-11T05:51:11.321Z,102333.13
2022-12-11T05:53:39.503Z,102344.00
2022-12-11T05:56:11.119Z,102340.19
2022-12-11T05:58:39.516Z,102339.94
2022-12-11T06:01:15.158Z,102349.97
2022-12-11T06:03:42.847Z,102355.88
2022-12-11T06:06:10.313Z,102359.03
2022-12-11T06:08:37.927Z,102357.88
2022-12-11T06:11:06.327Z,102360.78
2022-12-11T06:13:34.072Z,102365.91
2022-12-11T06:16:06.162Z,102353.78
2022-12-11T06:18:42.334Z,102354.41
2022-12-11T06:21:25.025Z,102354.84
2022-12-11T06:23:55.001Z,102351.59
2022-12-11T06:26:22.766Z,102355.16
2022-12-11T06:28:50.489Z,102356.66
2022-12-11T06:31:18.716Z,102350.34
2022-12-11T06:33:46.229Z,102350.44
2022-12-11T06:36:17.160Z,102339.38
2022-12-11T06:38:44.983Z,102355.41
2022-12-11T06:41:13.002Z,102368.16
2022-12-11T06:43:42.109Z,102367.56
2022-12-11T06:46:12.861Z,102365.31
2022-12-11T06:48:42.492Z,102365.41
2022-12-11T06:51:13.049Z,102354.81
2022-12-11T06:53:41.187Z,102352.22
2022-12-11T06:56:12.227Z,102359.53
2022-12-11T06:58:41.372Z,102361.81
2022-12-11T07:01:34.948Z,102371.91
2022-12-11T07:04:02.607Z,102369.69
2022-12-11T07:06:30.057Z,102365.09
2022-12-11T07:08:57.645Z,102367.13
2022-12-11T07:11:25.327Z,102362.22
2022-12-11T07:13:52.814Z,102356.53
2022-12-11T07:16:20.417Z,102369.13
2022-12-11T07:18:50.344Z,102364.72
2022-12-11T07:21:18.625Z,102381.06
2022-12-11T07:23:46.315Z,102381.00
2022-12-11T07:26:16.892Z,102379.69
2022-12-11T07:28:44.907Z,102389.78
2022-12-11T07:31:19.173Z,102381.81
2022-12-11T07:33:47.491Z,102378.63
2022-12-11T07:36:16.464Z,102373.41
2022-12-11T07:38:44.070Z,102377.50
2022-12-11T07:41:16.745Z,102368.59
2022-12-11T07:44:04.166Z,102369.91
2022-12-11T07:46:33.730Z,102375.78
2022-12-11T07:49:01.761Z,102379.81
2022-12-11T07:51:31.584Z,102376.53
2022-12-11T07:54:05.235Z,102374.97
2022-12-11T07:56:34.000Z,102381.75
2022-12-11T07:59:02.849Z,102372.56
2022-12-11T08:01:32.867Z,102374.97
2022-12-11T08:04:00.766Z,102362.50
2022-12-11T08:06:31.256Z,102351.66
2022-12-11T08:09:00.456Z,102355.97
2022-12-11T08:11:29.240Z,102347.84
2022-12-11T08:13:59.465Z,102360.63
2022-12-11T08:16:27.722Z,102362.97
2022-12-11T08:18:55.541Z,102359.06
2022-12-11T08:21:26.260Z,102359.41
2022-12-11T08:23:54.676Z,102367.13
2022-12-11T08:26:25.741Z,102354.75
2022-12-11T08:28:53.930Z,102363.00
2022-12-11T08:31:22.017Z,102348.50
2022-12-11T08:33:50.517Z,102347.50
2022-12-11T08:36:21.311Z,102343.16
2022-12-11T08:38:50.924Z,102340.47
2022-12-11T08:41:28.995Z,102336.69
2022-12-11T08:43:57.973Z,102338.25
2022-12-11T08:46:28.035Z,102329.91
2022-12-11T08:48:56.751Z,102331.31
2022-12-11T08:51:26.371Z,102329.06
2022-12-11T08:53:59.078Z,102328.06
2022-12-11T08:56:27.691Z,102332.16
2022-12-11T08:58:55.570Z,102334.03
2022-12-11T09:01:25.608Z,102334.28
2022-12-11T09:03:54.511Z,102343.09
2022-12-11T09:06:24.374Z,102335.06
2022-12-11T09:08:53.639Z,102335.38
2022-12-11T09:11:24.334Z,102324.25
2022-12-11T09:13:52.185Z,102330.34
2022-12-11T09:16:22.297Z,102324.91
2022-12-11T09:18:51.837Z,102326.94
2022-12-11T09:21:22.796Z,102326.94
2022-12-11T09:23:53.500Z,102315.78
2022-12-11T09:26:21.357Z,102318.38
2022-12-11T09:28:51.575Z,102321.25
2022-12-11T09:31:31.189Z,102318.47
2022-12-11T09:34:09.461Z,102322.09
2022-12-11T09:36:39.270Z,102313.97
2022-12-11T09:39:08.979Z,102323.06
2022-12-11T09:41:56.761Z,102323.78
2022-12-11T09:44:42.949Z,102312.28
2022-12-11T09:47:38.887Z,102310.22
2022-12-11T09:50:09.300Z,102308.63
2022-12-11T09:53:12.867Z,102303.44
2022-12-11T09:55:52.378Z,102300.63
2022-12-11T09:58:22.629Z,102300.34
2022-12-11T10:01:01.082Z,102293.50
2022-12-11T10:03:56.144Z,102294.53
2022-12-11T10:07:05.002Z,102291.19
2022-12-11T10:10:11.304Z,102291.19
2022-12-11T10:13:02.220Z,102300.34
2022-12-11T10:15:51.335Z,102288.53
2022-12-11T10:18:23.306Z,102292.66
2022-12-11T10:20:53.218Z,102283.59
2022-12-11T10:23:28.652Z,102294.78
2022-12-11T10:26:04.298Z,102301.63
2022-12-11T10:28:31.798Z,102296.13
2022-12-11T10:31:05.961Z,102300.44
2022-12-11T10:34:10.298Z,102314.44
2022-12-11T10:36:41.401Z,102312.09
2022-12-11T10:39:17.488Z,102312.25
2022-12-11T10:41:47.899Z,102308.63
2022-12-11T10:44:25.508Z,102318.03
2022-12-11T10:47:19.273Z,102306.69
2022-12-11T10:50:00.947Z,102306.13
2022-12-11T10:52:36.181Z,102308.56
2022-12-11T10:55:29.345Z,102305.88
2022-12-11T10:58:05.832Z,102305.88
2022-12-11T11:00:41.351Z,102289.53
2022-12-11T11:03:28.840Z,102295.88
2022-12-11T11:06:22.381Z,102302.19
2022-12-11T11:08:54.198Z,102297.38
2022-12-11T11:11:38.815Z,102296.41
2022-12-11T11:14:17.495Z,102291.28
2022-12-11T11:16:48.251Z,102284.72
2022-12-11T11:19:32.899Z,102287.06
2022-12-11T11:22:13.051Z,102295.81
2022-12-11T11:24:44.489Z,102299.44
2022-12-11T11:27:35.949Z,102301.44
2022-12-11T11:30:11.107Z,102298.34
2022-12-11T11:32:40.148Z,102303.63
2022-12-11T11:35:13.879Z,102308.31
2022-12-11T11:37:45.385Z,102314.09
2022-12-11T11:40:20.279Z,102303.94
2022-12-11T11:43:16.593Z,102314.22
2022-12-11T11:45:56.967Z,102313.41
2022-12-11T11:48:36.840Z,102315.50
2022-12-11T11:51:15.188Z,102307.13
2022-12-11T11:53:47.905Z,102322.75
2022-12-11T11:56:27.183Z,102319.50
2022-12-11T11:59:20.848Z,102334.97
2022-12-11T12:01:48.320Z,102329.69
2022-12-11T12:04:16.358Z,102344.19
2022-12-11T12:07:04.622Z,102339.44
2022-12-11T12:09:41.591Z,102345.03
2022-12-11T12:12:31.041Z,102348.78
2022-12-11T12:15:18.676Z,102341.13
2022-12-11T12:18:17.113Z,102337.97
2022-12-11T12:20:44.765Z,102324.25
2022-12-11T12:23:43.038Z,102327.88
2022-12-11T12:26:13.431Z,102338.50
2022-12-11T12:28:59.215Z,102341.03
2022-12-11T12:31:48.708Z,102345.25
2022-12-11T12:34:44.845Z,102342.06
2022-12-11T12:37:30.430Z,102351.00
2022-12-11T12:40:16.963Z,102356.34
2022-12-11T12:43:10.811Z,102360.56
2022-12-11T12:46:02.578Z,102361.72
2022-12-11T12:48:30.588Z,102369.38
2022-12-11T12:51:01.026Z,102373.09
2022-12-11T12:53:34.789Z,102374.59
2022-12-11T12:56:03.728Z,102372.66
2022-12-11T12:58:42.862Z,102373.16
2022-12-11T13:01:23.016Z,102369.88
2022-12-11T13:03:54.541Z,102368.28
2022-12-11T13:06:38.452Z,102366.75
2022-12-11T13:09:21.837Z,102362.91
2022-12-11T13:11:54.000Z,102366.28
2022-12-11T13:14:21.452Z,102363.75
2022-12-11T13:16:50.973Z,102366.25
2022-12-11T13:19:24.482Z,102368.19
2022-12-11T13:22:20.662Z,102358.38
2022-12-11T13:25:01.314Z,102365.78
2022-12-11T13:27:30.220Z,102366.25
2022-12-11T13:30:15.708Z,102375.03
2022-12-11T13:32:50.416Z,102373.66
2022-12-11T13:35:18.713Z,102370.81
2022-12-11T13:37:50.210Z,102368.28
2022-12-11T13:40:25.043Z,102376.47
2022-12-11T13:43:00.570Z,102374.97
2022-12-11T13:45:35.336Z,102386.09
2022-12-11T13:48:05.344Z,102384.53
2022-12-11T13:50:35.321Z,102391.88
2022-12-11T13:53:03.720Z,102384.06
2022-12-11T13:55:34.013Z,102385.34
2022-12-11T14:01:11.932Z,102395.19
2022-12-11T14:03:48.969Z,102402.34
2022-12-11T14:06:19.132Z,102398.38
2022-12-11T14:08:50.139Z,102405.53
2022-12-11T14:11:30.604Z,102397.09
2022-12-11T14:14:01.016Z,102398.34
2022-12-11T14:16:29.452Z,102385.81
2022-12-11T14:19:06.435Z,102391.19
2022-12-11T14:21:34.049Z,102374.81
2022-12-11T14:24:04.283Z,102382.78
2022-12-11T14:26:35.256Z,102370.75
2022-12-11T14:29:03.200Z,102375.00
2022-12-11T14:31:38.541Z,102364.97
2022-12-11T14:34:35.295Z,102379.91
2022-12-11T14:37:06.609Z,102371.50
2022-12-11T14:39:59.884Z,102357.88
2022-12-11T14:42:35.482Z,102355.56
2022-12-11T14:45:09.026Z,102355.50
2022-12-11T14:47:42.713Z,102350.75
2022-12-11T14:50:31.860Z,102356.66
2022-12-11T14:53:29.877Z,102365.31
2022-12-11T14:56:02.225Z,102368.19
2022-12-11T14:58:30.601Z,102360.63
2022-12-11T15:01:01.162Z,102371.84
2022-12-11T15:03:35.666Z,102368.97
2022-12-11T15:06:21.265Z,102356.41
2022-12-11T15:08:48.771Z,102366.06
2022-12-11T15:11:17.875Z,102370.81
2022-12-11T15:13:56.711Z,102361.47
2022-12-11T15:16:27.072Z,102380.00
2022-12-11T15:18:56.837Z,102377.78
2022-12-11T15:21:34.232Z,102377.31
2022-12-11T15:24:07.312Z,102372.56
2022-12-11T15:26:44.646Z,102369.44
2022-12-11T15:29:34.074Z,102372.78
2022-12-11T15:32:18.939Z,102367.91
2022-12-11T15:34:52.802Z,102380.66
2022-12-11T15:37:24.052Z,102391.47
2022-12-11T15:39:52.975Z,102400.03
2022-12-11T15:42:47.610Z,102389.34
2022-12-11T15:45:24.177Z,102386.13
2022-12-11T15:47:52.766Z,102400.03
2022-12-11T15:50:23.273Z,102400.44
2022-12-11T15:52:52.977Z,102404.97
2022-12-11T15:55:22.754Z,102402.03
2022-12-11T15:57:56.872Z,102400.44
2022-12-11T16:00:24.858Z,102401.03
2022-12-11T16:02:52.371Z,102408.56
2022-12-11T16:05:20.023Z,102413.84
2022-12-11T16:07:48.027Z,102399.22
2022-12-11T16:10:18.372Z,102411.00
2022-12-11T16:12:46.225Z,102418.66
2022-12-11T16:15:20.120Z,102401.03
2022-12-11T16:17:57.640Z,102400.38
2022-12-11T16:20:25.221Z,102415.34
2022-12-11T16:22:52.620Z,102403.44
2022-12-11T16:25:20.099Z,102408.66
2022-12-11T16:27:47.785Z,102409.34
2022-12-11T16:30:15.151Z,102412.16
2022-12-11T16:32:43.014Z,102410.25
2022-12-11T16:35:21.612Z,102396.59
2022-12-11T16:37:54.402Z,102383.03
2022-12-11T16:40:23.004Z,102381.31
2022-12-11T16:42:51.100Z,102380.59
2022-12-11T16:45:24.252Z,102378.53
2022-12-11T16:47:52.681Z,102383.31
2022-12-11T16:50:20.113Z,102378.00
2022-12-11T16:52:47.722Z,102371.69
2022-12-11T16:55:15.932Z,102371.41
2022-12-11T16:57:43.508Z,102388.13
2022-12-11T17:00:14.661Z,102373.13
2022-12-11T17:02:42.294Z,102379.38
2022-12-11T17:05:10.368Z,102372.91
2022-12-11T17:07:38.280Z,102372.94
2022-12-11T17:10:06.100Z,102381.53
2022-12-11T17:12:33.501Z,102378.81
2022-12-11T17:15:00.888Z,102381.06
2022-12-11T17:17:28.453Z,102376.06
2022-12-11T17:19:56.408Z,102367.41
2022-12-11T17:22:23.880Z,102369.41
2022-12-11T17:24:51.316Z,102369.28
2022-12-11T17:27:18.869Z,102373.41
2022-12-11T17:29:47.597Z,102372.63
2022-12-11T17:32:15.764Z,102369.84
2022-12-11T17:34:43.313Z,102358.69
2022-12-11T17:37:11.229Z,102369.91
2022-12-11T17:39:38.592Z,102357.25
2022-12-11T17:42:06.757Z,102354.22
2022-12-11T17:44:34.706Z,102348.03
2022-12-11T17:47:07.488Z,102348.34
2022-12-11T17:49:39.725Z,102359.94
2022-12-11T17:52:07.376Z,102363.09
2022-12-11T17:54:35.426Z,102353.78
2022-12-11T17:57:03.098Z,102364.28
2022-12-11T17:59:30.638Z,102356.91
2022-12-11T18:01:58.274Z,102352.84
2022-12-11T18:04:25.881Z,102359.28
2022-12-11T18:06:53.280Z,102368.66
2022-12-11T18:09:20.763Z,102355.72
2022-12-11T18:11:48.277Z,102358.88
2022-12-11T18:14:17.574Z,102363.84
2022-12-11T18:16:45.178Z,102364.66
2022-12-11T18:19:13.302Z,102356.53
2022-12-11T18:21:43.027Z,102371.66
2022-12-11T18:24:10.733Z,102366.44
2022-12-11T18:26:38.346Z,102365.44
2022-12-11T18:29:07.005Z,102370.88
2022-12-11T18:31:40.528Z,102375.41
2022-12-11T18:34:10.853Z,102369.22
2022-12-11T18:36:38.266Z,102369.22
2022-12-11T18:39:05.675Z,102372.44
2022-12-11T18:41:33.059Z,102372.56
2022-12-11T18:44:07.973Z,102385.53
2022-12-11T18:46:37.647Z,102386.69
2022-12-11T18:49:05.447Z,102373.22
2022-12-11T18:51:32.938Z,102396.81
2022-12-11T18:54:00.380Z,102389.53
2022-12-11T18:56:27.906Z,102394.63
2022-12-11T18:58:55.269Z,102384.13
2022-12-11T19:01:27.398Z,102376.84
2022-12-11T19:04:04.171Z,102378.94
2022-12-11T19:06:35.801Z,102373.47
2022-12-11T19:09:05.769Z,102372.44
2022-12-11T19:11:34.730Z,102371.00
2022-12-11T19:14:02.575Z,102370.63
2022-12-11T19:16:36.538Z,102371.00
2022-12-11T19:19:10.196Z,102373.66
2022-12-11T19:21:40.076Z,102376.66
2022-12-11T19:24:10.306Z,102380.31
2022-12-11T19:26:37.701Z,102384.78
2022-12-11T19:29:05.420Z,102387.44
2022-12-11T19:31:34.170Z,102392.03
2022-12-11T19:34:03.181Z,102391.06
2022-12-11T19:36:32.135Z,102387.84
2022-12-11T19:39:01.788Z,102390.66
2022-12-11T19:41:30.466Z,102375.59
2022-12-11T19:43:59.516Z,102385.75
2022-12-11T19:46:28.401Z,102381.88
2022-12-11T19:48:57.476Z,102388.16
2022-12-11T19:51:38.671Z,102384.91
2022-12-11T19:54:08.593Z,102385.81
2022-12-11T19:56:36.425Z,102391.47
2022-12-11T19:59:06.584Z,102381.16
2022-12-11T20:01:36.543Z,102383.00
2022-12-11T20:04:23.062Z,102391.78
2022-12-11T20:06:50.674Z,102397.69
2022-12-11T20:09:18.494Z,102388.66
2022-12-11T20:11:47.806Z,102383.81
2022-12-11T20:14:20.305Z,102381.78
2022-12-11T20:19:35.765Z,102375.00
2022-12-11T20:22:03.127Z,102374.03
2022-12-11T20:24:30.760Z,102375.63
2022-12-11T20:26:58.230Z,102393.94
2022-12-11T20:29:25.731Z,102392.13
2022-12-11T20:31:53.343Z,102399.50
2022-12-11T20:34:21.242Z,102400.59
2022-12-11T20:36:48.820Z,102399.84
2022-12-11T20:39:16.235Z,102398.34
2022-12-11T20:41:44.129Z,102395.88
2022-12-11T20:44:11.481Z,102404.06
2022-12-11T20:46:39.009Z,102397.44
2022-12-11T20:49:13.001Z,102396.44
2022-12-11T20:51:41.512Z,102396.97
2022-12-11T20:54:09.275Z,102398.16
2022-12-11T20:56:36.864Z,102394.91
2022-12-11T20:59:04.459Z,102385.81
2022-12-11T21:01:33.435Z,102387.34
2022-12-11T21:04:01.162Z,102391.31
2022-12-11T21:06:36.893Z,102398.69
2022-12-11T21:09:08.348Z,102379.84
2022-12-11T21:11:36.144Z,102396.34
2022-12-11T21:16:55.637Z,102383.00
2022-12-11T21:19:23.709Z,102384.19
2022-12-11T21:21:51.539Z,102371.34
2022-12-11T21:24:32.575Z,102375.75
2022-12-11T21:27:00.119Z,102382.22
2022-12-11T21:29:29.596Z,102380.59
2022-12-11T21:31:58.038Z,102389.91
2022-12-11T21:34:25.933Z,102393.22
2022-12-11T21:36:57.282Z,102382.19
2022-12-11T21:39:26.642Z,102403.06
2022-12-11T21:42:12.762Z,102389.78
2022-12-11T21:45:31.520Z,102393.47
2022-12-11T21:47:30.219Z,102390.19
2022-12-11T21:49:57.664Z,102391.06
2022-12-11T21:52:25.106Z,102384.63
2022-12-11T21:54:52.505Z,102380.41
2022-12-11T21:57:25.875Z,102379.63
2022-12-11T21:59:53.965Z,102381.16
2022-12-11T22:02:21.542Z,102374.25
2022-12-11T22:04:48.922Z,102382.94
2022-12-11T22:07:16.638Z,102373.03
2022-12-11T22:12:28.505Z,102366.56
2022-12-11T22:14:56.503Z,102358.66
2022-12-11T22:17:24.144Z,102360.97
2022-12-11T22:19:54.804Z,102353.19
2022-12-11T22:22:22.331Z,102366.16
2022-12-11T22:24:50.975Z,102355.09
2022-12-11T22:27:23.462Z,102362.66
2022-12-11T22:29:51.341Z,102352.38
2022-12-11T22:32:18.893Z,102361.84
2022-12-11T22:34:46.352Z,102357.00
2022-12-11T22:37:13.901Z,102373.00
2022-12-11T22:39:41.243Z,102373.28
2022-12-11T22:42:08.740Z,102368.91
2022-12-11T22:44:36.189Z,102373.66
2022-12-11T22:47:03.748Z,102364.75
2022-12-11T22:49:31.318Z,102362.38
2022-12-11T22:51:59.013Z,102359.31
2022-12-11T22:54:26.602Z,102365.06
2022-12-11T22:57:09.091Z,102362.50
2022-12-11T22:59:59.599Z,102369.16
2022-12-11T23:02:27.581Z,102367.19
2022-12-11T23:04:55.102Z,102360.13
2022-12-11T23:07:24.437Z,102360.50
2022-12-11T23:09:51.936Z,102360.34
2022-12-11T23:12:19.516Z,102360.81
2022-12-11T23:14:46.837Z,102363.03
2022-12-11T23:17:14.339Z,102360.13
2022-12-11T23:19:42.320Z,102352.19
2022-12-11T23:22:10.049Z,102353.50
2022-12-11T23:24:37.452Z,102347.34
2022-12-11T23:27:05.417Z,102360.41
2022-12-11T23:29:32.924Z,102356.88
2022-12-11T23:32:00.558Z,102350.91
2022-12-11T23:34:28.380Z,102342.34
2022-12-11T23:36:55.906Z,102344.88
2022-12-11T23:39:23.315Z,102337.66
2022-12-11T23:41:50.799Z,102354.59
2022-12-11T23:44:18.637Z,102346.13
2022-12-11T23:46:46.121Z,102352.41
2022-12-11T23:49:13.436Z,102356.16
2022-12-11T23:51:42.192Z,102358.59
2022-12-11T23:54:09.686Z,102351.91
2022-12-11T23:56:37.213Z,102346.75
2022-12-11T23:59:04.600Z,102347.91
